Time;durP1;ratioP1;P1;durP2;ratioP2;P2;SDS_P1;SDS_P2;PMS_P1;PMS_P2;Temp;Humidity;BMP_temperature;BMP_pressure;BME280_temperature;BME280_humidity;BME280_pressure;Samples;Min_cycle;Max_cycle;Signal;HPM_P1;HPM_P2
2023/06/25 00:02:27;;;;;;;19.10;17.10;;;20.80;99.90;;;;;;5096059;28;20462;-77
2023/06/25 00:04:55;;;;;;;18.83;16.83;;;20.80;99.90;;;;;;5094732;28;20456;-77
2023/06/25 00:07:23;;;;;;;19.63;16.30;;;20.70;99.90;;;;;;5094880;28;20440;-77
2023/06/25 00:09:56;;;;;;;17.83;16.03;;;20.70;99.90;;;;;;5095720;28;20468;-77
2023/06/25 00:12:25;;;;;;;19.20;17.03;;;20.70;99.90;;;;;;5094592;28;20481;-77
2023/06/25 00:14:53;;;;;;;19.17;16.90;;;20.60;99.90;;;;;;5095955;28;20527;-77
2023/06/25 00:17:27;;;;;;;18.40;16.60;;;20.60;99.90;;;;;;5095656;28;20440;-77
2023/06/25 00:19:56;;;;;;;18.40;16.33;;;20.60;99.90;;;;;;5095701;28;20871;-77
2023/06/25 00:22:24;;;;;;;19.03;16.87;;;20.50;99.90;;;;;;5095477;28;20472;-77
2023/06/25 00:24:52;;;;;;;23.50;18.10;;;20.50;99.90;;;;;;5095845;28;20761;-77
2023/06/25 00:27:20;;;;;;;20.53;18.13;;;20.50;99.90;;;;;;5095451;28;20440;-77
2023/06/25 00:29:50;;;;;;;19.93;17.80;;;20.50;99.90;;;;;;5095952;28;20464;-77
2023/06/25 00:32:20;;;;;;;18.50;16.60;;;20.40;99.90;;;;;;5094432;28;20440;-77
2023/06/25 00:34:48;;;;;;;18.17;16.27;;;20.40;99.90;;;;;;5093985;28;20445;-77
2023/06/25 00:37:19;;;;;;;18.20;16.40;;;20.30;99.90;;;;;;5094033;28;20957;-77
2023/06/25 00:39:48;;;;;;;21.00;16.17;;;20.30;99.90;;;;;;5093992;28;21006;-77
2023/06/25 00:42:17;;;;;;;16.50;14.90;;;20.30;99.90;;;;;;5093918;28;20447;-77
2023/06/25 00:44:46;;;;;;;18.63;16.73;;;20.30;99.90;;;;;;5095265;28;20447;-77
2023/06/25 00:47:17;;;;;;;18.83;16.83;;;20.20;99.90;;;;;;5095313;28;20431;-77
2023/06/25 00:49:48;;;;;;;19.53;15.80;;;20.20;99.90;;;;;;5093625;28;20517;-77
2023/06/25 00:52:16;;;;;;;18.90;16.77;;;20.20;99.90;;;;;;5093632;28;20440;-77
2023/06/25 00:54:45;;;;;;;18.53;16.63;;;20.20;99.90;;;;;;5094901;28;20432;-77
2023/06/25 00:57:15;;;;;;;17.67;15.90;;;20.10;99.90;;;;;;5095042;28;20433;-77
2023/06/25 00:59:45;;;;;;;18.27;16.37;;;20.10;99.90;;;;;;5093740;28;20474;-77
2023/06/25 01:02:22;;;;;;;18.03;16.17;;;20.10;99.90;;;;;;5093466;28;20497;-77
2023/06/25 01:04:58;;;;;;;18.10;16.20;;;20.10;99.90;;;;;;5095024;28;20416;-74
2023/06/25 01:07:28;;;;;;;19.33;17.30;;;20.00;99.90;;;;;;5094907;28;20424;-75
2023/06/25 01:09:56;;;;;;;19.80;17.10;;;20.00;99.90;;;;;;5094855;28;20436;-74
2023/06/25 01:12:25;;;;;;;19.63;17.20;;;20.00;99.90;;;;;;5093250;28;20519;-74
2023/06/25 01:14:53;;;;;;;18.30;16.40;;;19.90;99.90;;;;;;5094554;28;20442;-74
2023/06/25 01:17:22;;;;;;;18.33;16.30;;;19.90;99.90;;;;;;5093166;28;20509;-74
2023/06/25 01:19:51;;;;;;;18.80;17.00;;;19.90;99.90;;;;;;5093167;28;20864;-74
2023/06/25 01:22:24;;;;;;;17.67;15.93;;;19.90;99.90;;;;;;5094143;28;20535;-74
2023/06/25 01:24:53;;;;;;;19.20;17.30;;;19.90;99.90;;;;;;5093193;28;20498;-74
2023/06/25 01:27:22;;;;;;;17.33;15.20;;;19.90;99.90;;;;;;5093033;28;20437;-74
2023/06/25 01:29:50;;;;;;;19.63;17.77;;;19.80;99.90;;;;;;5094209;28;20455;-74
2023/06/25 01:32:19;;;;;;;19.40;17.37;;;19.80;99.90;;;;;;5092855;28;20468;-74
2023/06/25 01:34:47;;;;;;;19.30;17.30;;;19.80;99.90;;;;;;5094207;28;20485;-74
2023/06/25 01:37:17;;;;;;;19.17;17.10;;;19.70;99.90;;;;;;5094465;28;20436;-76
2023/06/25 01:39:49;;;;;;;17.93;16.07;;;19.70;99.90;;;;;;5092986;28;20467;-76
2023/06/25 01:42:18;;;;;;;17.43;15.60;;;19.70;99.90;;;;;;5092826;28;20914;-77
2023/06/25 01:44:46;;;;;;;17.03;15.03;;;19.60;99.90;;;;;;5092646;28;20539;-77
2023/06/25 01:47:15;;;;;;;19.33;17.37;;;19.60;99.90;;;;;;5093936;28;20967;-77
2023/06/25 01:49:43;;;;;;;17.07;15.37;;;19.60;99.90;;;;;;5092573;28;20456;-77
2023/06/25 01:52:11;;;;;;;17.10;15.30;;;19.60;99.90;;;;;;5093772;28;20460;-77
2023/06/25 01:54:39;;;;;;;17.10;15.40;;;19.60;99.90;;;;;;5094004;28;20523;-77
2023/06/25 01:57:09;;;;;;;18.17;16.40;;;19.60;99.90;;;;;;5092554;28;20480;-77
2023/06/25 01:59:37;;;;;;;19.30;15.10;;;19.50;99.90;;;;;;5092476;28;20513;-77
2023/06/25 02:02:06;;;;;;;16.93;15.23;;;19.50;99.90;;;;;;5093752;28;20527;-76
2023/06/25 02:04:34;;;;;;;16.53;14.50;;;19.50;99.90;;;;;;5094124;28;20777;-77
2023/06/25 02:07:02;;;;;;;17.40;15.43;;;19.50;99.90;;;;;;5092389;28;20452;-77
2023/06/25 02:09:30;;;;;;;17.77;15.87;;;19.40;99.90;;;;;;5092725;28;20501;-77
2023/06/25 02:11:58;;;;;;;16.37;14.67;;;19.40;99.90;;;;;;5097743;28;20503;-74
2023/06/25 02:14:28;;;;;;;17.60;15.50;;;19.40;99.90;;;;;;5093724;28;20476;-74
2023/06/25 02:16:56;;;;;;;16.97;15.33;;;19.40;99.90;;;;;;5092650;28;20484;-74
2023/06/25 02:19:24;;;;;;;19.17;16.30;;;19.30;99.90;;;;;;5093976;28;21011;-74
2023/06/25 02:21:53;;;;;;;17.23;15.47;;;19.40;99.90;;;;;;5092536;28;20527;-74
2023/06/25 02:24:22;;;;;;;16.03;14.03;;;19.30;99.90;;;;;;5092319;28;20448;-75
2023/06/25 02:26:50;;;;;;;16.23;14.53;;;19.30;99.90;;;;;;5092319;28;20447;-75
2023/06/25 02:29:18;;;;;;;16.47;14.77;;;19.30;99.90;;;;;;5092108;28;20479;-75
2023/06/25 02:31:48;;;;;;;18.10;16.30;;;19.20;99.90;;;;;;5093558;28;20551;-75
2023/06/25 02:34:16;;;;;;;16.50;14.80;;;19.20;99.90;;;;;;5093518;28;20458;-75
2023/06/25 02:36:44;;;;;;;17.80;16.03;;;19.20;99.90;;;;;;5092228;28;20879;-75
2023/06/25 02:39:13;;;;;;;17.60;15.77;;;19.20;99.90;;;;;;5093155;28;21046;-75
2023/06/25 02:41:41;;;;;;;17.93;16.13;;;19.20;99.90;;;;;;5092141;28;20452;-75
2023/06/25 02:44:09;;;;;;;17.87;16.00;;;19.10;99.90;;;;;;5093314;28;20447;-75
2023/06/25 02:46:37;;;;;;;20.60;18.50;;;19.10;99.90;;;;;;5092024;28;20532;-75
2023/06/25 02:49:07;;;;;;;19.73;17.63;;;19.10;99.90;;;;;;5092017;28;20545;-75
2023/06/25 02:51:35;;;;;;;20.10;17.90;;;19.10;99.90;;;;;;5092181;28;20468;-74
2023/06/25 02:54:04;;;;;;;20.07;18.07;;;19.00;99.90;;;;;;5091878;28;20820;-75
2023/06/25 02:56:32;;;;;;;20.00;17.87;;;19.00;99.90;;;;;;5092147;28;20441;-75
2023/06/25 02:59:00;;;;;;;22.17;19.73;;;19.00;99.90;;;;;;5092072;28;20490;-75
2023/06/25 03:01:29;;;;;;;21.80;19.50;;;19.00;99.90;;;;;;5093293;28;20435;-75
2023/06/25 03:03:58;;;;;;;20.03;17.10;;;19.00;99.90;;;;;;5091337;28;20472;-75
2023/06/25 03:06:27;;;;;;;21.70;19.50;;;19.00;99.90;;;;;;5093976;28;20455;-74
2023/06/25 03:08:56;;;;;;;21.10;18.83;;;18.90;99.90;;;;;;5095631;28;20495;-75
2023/06/25 03:11:24;;;;;;;22.60;20.33;;;18.90;99.90;;;;;;5095611;28;20520;-74
2023/06/25 03:13:52;;;;;;;23.43;20.93;;;18.90;99.90;;;;;;5095638;28;20535;-74
2023/06/25 03:16:20;;;;;;;19.90;17.90;;;18.90;99.90;;;;;;5095459;28;20517;-74
2023/06/25 03:18:48;;;;;;;22.83;20.57;;;18.90;99.90;;;;;;5095464;28;20459;-74
2023/06/25 03:21:17;;;;;;;22.57;20.27;;;18.90;99.90;;;;;;5095693;28;20472;-74
2023/06/25 03:23:47;;;;;;;21.50;19.30;;;18.80;99.90;;;;;;5095344;28;20444;-75
2023/06/25 03:26:15;;;;;;;22.50;20.20;;;18.80;99.90;;;;;;5095399;28;20444;-77
2023/06/25 03:28:44;;;;;;;23.70;21.07;;;18.80;99.90;;;;;;5095385;28;20460;-77
2023/06/25 03:31:12;;;;;;;21.50;19.37;;;18.80;99.90;;;;;;5095256;28;20448;-75
2023/06/25 03:33:48;;;;;;;22.50;20.20;;;18.80;99.90;;;;;;5095273;28;20523;-74
2023/06/25 03:36:17;;;;;;;21.83;19.63;;;18.80;99.90;;;;;;5095145;28;20440;-75
2023/06/25 03:38:46;;;;;;;22.10;20.00;;;18.80;99.90;;;;;;5095026;28;20460;-74
2023/06/25 03:41:15;;;;;;;24.60;22.20;;;18.80;99.90;;;;;;5095510;28;20546;-74
2023/06/25 03:43:43;;;;;;;23.67;21.20;;;18.70;99.90;;;;;;5095032;28;20440;-75
2023/06/25 03:46:12;;;;;;;25.20;22.50;;;18.70;99.90;;;;;;5095062;28;20987;-75
2023/06/25 03:48:42;;;;;;;24.10;21.63;;;18.70;99.90;;;;;;5095010;28;20460;-74
2023/06/25 03:51:11;;;;;;;25.40;23.03;;;18.70;99.90;;;;;;5094931;28;20872;-74
2023/06/25 03:53:41;;;;;;;24.33;21.83;;;18.70;99.90;;;;;;5095179;28;20478;-74
2023/06/25 03:56:11;;;;;;;24.10;21.80;;;18.70;99.90;;;;;;5094823;28;20462;-74
2023/06/25 03:58:39;;;;;;;23.70;21.33;;;18.70;99.90;;;;;;5094739;28;20503;-74
2023/06/25 04:01:07;;;;;;;27.03;24.20;;;18.70;99.90;;;;;;5096005;28;20436;-75
2023/06/25 04:03:35;;;;;;;28.40;25.50;;;18.70;99.90;;;;;;5094891;28;20442;-75
2023/06/25 04:06:04;;;;;;;26.63;23.97;;;18.70;99.90;;;;;;5095888;28;20444;-75
2023/06/25 04:08:32;;;;;;;27.47;24.70;;;18.70;99.90;;;;;;5095777;28;20455;-75
2023/06/25 04:11:00;;;;;;;26.87;24.13;;;18.70;99.90;;;;;;5094497;28;20505;-74
2023/06/25 04:13:31;;;;;;;27.17;24.37;;;18.70;99.90;;;;;;5094427;28;20468;-75
2023/06/25 04:15:59;;;;;;;25.90;23.50;;;18.80;99.90;;;;;;5094028;28;20468;-75
2023/06/25 04:18:27;;;;;;;26.13;23.33;;;18.80;99.90;;;;;;5094445;28;21016;-75
2023/06/25 04:20:57;;;;;;;25.83;23.33;;;18.80;99.90;;;;;;5094826;28;20449;-75
2023/06/25 04:23:25;;;;;;;28.70;25.73;;;18.80;99.90;;;;;;5094065;28;20452;-74
2023/06/25 04:25:53;;;;;;;27.20;24.70;;;18.80;99.90;;;;;;5095522;28;20424;-74
2023/06/25 04:28:21;;;;;;;28.17;25.27;;;18.80;99.90;;;;;;5094101;28;20493;-74
2023/06/25 04:30:51;;;;;;;27.07;24.27;;;18.90;99.90;;;;;;5094144;28;20447;-74
2023/06/25 04:33:20;;;;;;;27.77;24.90;;;18.90;99.90;;;;;;5094006;28;20464;-74
2023/06/25 04:35:48;;;;;;;26.47;23.67;;;18.90;99.90;;;;;;5095861;28;20810;-74
2023/06/25 04:38:16;;;;;;;28.77;25.70;;;18.90;99.90;;;;;;5095120;28;20486;-74
2023/06/25 04:40:44;;;;;;;27.17;24.40;;;19.00;99.90;;;;;;5095161;28;20529;-74
2023/06/25 04:43:13;;;;;;;27.60;24.80;;;19.00;99.90;;;;;;5095193;28;20444;-74
2023/06/25 04:45:41;;;;;;;25.57;22.90;;;19.00;99.90;;;;;;5093819;28;20475;-74
2023/06/25 04:48:11;;;;;;;26.67;23.87;;;19.00;99.90;;;;;;5093887;28;21003;-76
2023/06/25 04:50:39;;;;;;;27.73;24.93;;;19.00;99.90;;;;;;5093869;28;20472;-74
2023/06/25 04:53:07;;;;;;;25.63;22.97;;;19.10;99.90;;;;;;5095220;28;20460;-74
2023/06/25 04:55:35;;;;;;;25.67;23.10;;;19.10;99.90;;;;;;5095110;28;21012;-74
2023/06/25 04:58:04;;;;;;;26.73;23.97;;;19.20;99.90;;;;;;5095250;28;20857;-75
2023/06/25 05:00:32;;;;;;;23.27;20.97;;;19.20;99.90;;;;;;5095158;28;20440;-75
2023/06/25 05:03:00;;;;;;;24.00;21.57;;;19.20;99.90;;;;;;5094714;28;20429;-75
2023/06/25 05:05:30;;;;;;;25.50;22.93;;;19.30;99.90;;;;;;5093470;28;20525;-75
2023/06/25 05:07:58;;;;;;;22.40;20.10;;;19.30;99.90;;;;;;5093477;28;21052;-75
2023/06/25 05:10:27;;;;;;;23.77;21.27;;;19.30;99.90;;;;;;5094681;28;20440;-74
2023/06/25 05:12:55;;;;;;;24.40;21.90;;;19.40;99.90;;;;;;5094552;28;20533;-74
2023/06/25 05:15:24;;;;;;;23.67;20.83;;;19.40;99.90;;;;;;5095053;28;20475;-74
2023/06/25 05:17:52;;;;;;;25.97;23.37;;;19.50;99.90;;;;;;5100676;28;20460;-74
2023/06/25 05:20:21;;;;;;;23.80;21.40;;;19.50;99.90;;;;;;5097233;28;20440;-75
2023/06/25 05:22:50;;;;;;;23.00;20.80;;;19.50;99.90;;;;;;5095174;28;20484;-75
2023/06/25 05:25:18;;;;;;;25.38;22.67;;;19.60;99.90;;;;;;5093145;28;20479;-74
2023/06/25 05:27:46;;;;;;;21.33;19.23;;;19.70;99.90;;;;;;5093970;28;20206;-74
2023/06/25 05:30:15;;;;;;;23.83;21.17;;;19.70;99.90;;;;;;5094304;28;20432;-74
2023/06/25 05:32:43;;;;;;;22.43;20.13;;;19.80;99.90;;;;;;5094461;28;20471;-74
2023/06/25 05:35:11;;;;;;;20.83;18.80;;;19.80;99.90;;;;;;5094376;28;20432;-74
2023/06/25 05:37:39;;;;;;;20.60;18.50;;;19.90;99.90;;;;;;5094443;28;20428;-74
2023/06/25 05:40:10;;;;;;;22.80;20.50;;;20.00;99.90;;;;;;5094057;28;20432;-74
2023/06/25 05:42:38;;;;;;;21.17;18.90;;;20.10;99.90;;;;;;5094383;28;20997;-74
2023/06/25 05:45:07;;;;;;;19.90;17.97;;;20.20;99.90;;;;;;5094333;28;20478;-75
2023/06/25 05:47:35;;;;;;;20.10;18.00;;;20.40;99.90;;;;;;5094118;28;20429;-75
2023/06/25 05:50:04;;;;;;;21.00;18.10;;;20.50;99.90;;;;;;5093942;28;20443;-74
2023/06/25 05:52:33;;;;;;;20.40;18.30;;;20.70;99.90;;;;;;5093880;28;20467;-74
2023/06/25 05:55:01;;;;;;;19.50;17.17;;;20.90;99.90;;;;;;5092915;28;20548;-74
2023/06/25 05:57:31;;;;;;;19.43;17.40;;;21.00;99.90;;;;;;5094151;28;20930;-74
2023/06/25 05:59:59;;;;;;;21.80;19.40;;;21.20;99.90;;;;;;5092837;28;20440;-74
2023/06/25 06:02:27;;;;;;;19.47;17.40;;;21.40;99.90;;;;;;5093040;28;20817;-74
2023/06/25 06:04:55;;;;;;;17.70;15.87;;;21.60;99.90;;;;;;5093886;28;20475;-74
2023/06/25 06:07:23;;;;;;;16.30;14.67;;;21.80;99.90;;;;;;5093650;28;20485;-74
2023/06/25 06:09:52;;;;;;;17.67;15.97;;;22.00;99.90;;;;;;5093853;28;20432;-76
2023/06/25 06:12:20;;;;;;;15.77;14.10;;;22.20;99.90;;;;;;5093926;28;20440;-74
2023/06/25 06:14:49;;;;;;;17.83;15.93;;;22.40;99.90;;;;;;5094014;28;20429;-74
2023/06/25 06:17:17;;;;;;;15.67;14.07;;;22.60;99.90;;;;;;5093783;28;20485;-75
2023/06/25 06:19:45;;;;;;;17.57;15.77;;;22.80;99.90;;;;;;5093421;28;20460;-76
2023/06/25 06:22:14;;;;;;;16.37;14.20;;;23.00;99.90;;;;;;5093402;28;20437;-75
2023/06/25 06:24:43;;;;;;;14.87;13.40;;;23.10;99.90;;;;;;5093664;28;20442;-74
2023/06/25 06:27:17;;;;;;;16.07;14.43;;;23.30;99.90;;;;;;5094411;28;20443;-75
2023/06/25 06:29:45;;;;;;;14.83;13.33;;;23.40;99.90;;;;;;5093307;28;20554;-75
2023/06/25 06:32:14;;;;;;;13.90;12.50;;;23.50;99.90;;;;;;5092144;28;20440;-75
2023/06/25 06:34:43;;;;;;;15.70;13.80;;;23.70;99.90;;;;;;5094758;28;21028;-78
2023/06/25 06:37:11;;;;;;;20.10;18.10;;;23.90;99.90;;;;;;5105958;28;20476;-80
2023/06/25 06:39:39;;;;;;;23.87;21.37;;;24.00;99.90;;;;;;5108724;28;20570;-80
2023/06/25 06:42:08;;;;;;;21.40;19.40;;;24.20;99.90;;;;;;5114063;28;20444;-77
2023/06/25 06:44:38;;;;;;;14.73;13.43;;;24.30;99.90;;;;;;5096487;28;20429;-78
2023/06/25 06:47:07;;;;;;;16.60;15.10;;;24.50;99.90;;;;;;5098341;28;20439;-76
2023/06/25 06:49:36;;;;;;;18.47;16.57;;;24.60;99.90;;;;;;5098229;28;20554;-77
2023/06/25 06:52:05;;;;;;;14.80;13.40;;;24.70;99.90;;;;;;5097937;28;20464;-77
2023/06/25 06:54:33;;;;;;;15.17;13.67;;;24.90;99.90;;;;;;5097359;28;20479;-77
2023/06/25 06:57:01;;;;;;;15.40;14.10;;;25.00;99.90;;;;;;5097350;28;20458;-77
2023/06/25 06:59:29;;;;;;;13.60;12.40;;;25.10;99.90;;;;;;5097872;28;20456;-77
2023/06/25 07:01:57;;;;;;;15.07;13.77;;;25.30;99.90;;;;;;5098002;28;20458;-75
2023/06/25 07:04:26;;;;;;;13.73;12.53;;;25.40;99.90;;;;;;5097837;28;20439;-76
2023/06/25 07:06:55;;;;;;;15.00;13.70;;;25.50;99.90;;;;;;5097799;28;20964;-76
2023/06/25 07:09:25;;;;;;;14.17;12.87;;;25.60;99.90;;;;;;5097870;28;20451;-78
2023/06/25 07:11:53;;;;;;;14.17;12.93;;;25.70;99.90;;;;;;5099120;28;20416;-78
2023/06/25 07:14:21;;;;;;;13.07;11.87;;;25.80;99.90;;;;;;5097593;28;20907;-79
2023/06/25 07:16:50;;;;;;;13.00;11.90;;;25.90;99.90;;;;;;5095899;28;20444;-76
2023/06/25 07:19:18;;;;;;;15.03;12.17;;;25.90;99.90;;;;;;5096245;28;20510;-79
2023/06/25 07:21:46;;;;;;;12.50;11.30;;;26.00;99.90;;;;;;5097849;28;20497;-80
2023/06/25 07:24:15;;;;;;;13.60;12.30;;;26.10;99.90;;;;;;5098623;28;20554;-79
2023/06/25 07:26:44;;;;;;;12.67;11.53;;;26.20;99.90;;;;;;5100022;28;20468;-80
2023/06/25 07:29:12;;;;;;;13.30;12.00;;;26.20;99.90;;;;;;5098596;28;20472;-80
2023/06/25 07:31:40;;;;;;;13.73;12.43;;;26.30;99.90;;;;;;5095408;28;20452;-78
2023/06/25 07:34:08;;;;;;;12.70;11.50;;;26.40;99.90;;;;;;5096551;28;20831;-78
2023/06/25 07:36:36;;;;;;;12.80;11.60;;;26.50;99.90;;;;;;5096523;28;20859;-78
2023/06/25 07:39:05;;;;;;;14.10;12.80;;;26.60;99.90;;;;;;5095105;28;20460;-78
2023/06/25 07:41:35;;;;;;;12.07;10.97;;;26.70;99.90;;;;;;5099101;28;20456;-80
2023/06/25 07:44:03;;;;;;;11.67;10.57;;;26.70;99.90;;;;;;5098060;28;20428;-77
2023/06/25 07:46:50;;;;;;;11.57;10.38;;;26.80;99.90;;;;;;5095063;28;20475;-78
2023/06/25 07:49:18;;;;;;;12.77;11.00;;;26.90;99.90;;;;;;5095917;28;20300;-78
2023/06/25 07:51:50;;;;;;;11.63;10.53;;;27.00;99.90;;;;;;5097046;28;20436;-79
2023/06/25 07:54:18;;;;;;;12.07;10.97;;;27.00;99.90;;;;;;5096744;28;20873;-78
2023/06/25 07:56:48;;;;;;;12.63;11.43;;;27.10;99.90;;;;;;5100374;28;20423;-80
2023/06/25 07:59:16;;;;;;;12.30;11.13;;;27.10;99.90;;;;;;5102906;28;20488;-80
2023/06/25 08:01:45;;;;;;;14.07;11.93;;;27.10;99.90;;;;;;5099612;28;20432;-79
2023/06/25 08:04:13;;;;;;;12.87;11.67;;;27.20;99.90;;;;;;5097209;28;20949;-78
2023/06/25 08:06:42;;;;;;;12.00;10.90;;;27.30;99.90;;;;;;5096408;28;20531;-78
2023/06/25 08:09:10;;;;;;;12.30;11.20;;;27.30;99.90;;;;;;5096867;28;20456;-78
2023/06/25 08:11:38;;;;;;;10.73;9.67;;;27.30;99.90;;;;;;5094604;28;20440;-78
2023/06/25 08:14:08;;;;;;;11.23;10.23;;;27.40;99.90;;;;;;5097071;28;20475;-79
2023/06/25 08:16:36;;;;;;;11.10;10.03;;;27.40;99.90;;;;;;5096232;28;20435;-77
2023/06/25 08:19:04;;;;;;;11.90;10.70;;;27.50;99.90;;;;;;5100576;28;20498;-79
2023/06/25 08:21:33;;;;;;;10.80;9.90;;;27.50;99.90;;;;;;5099162;28;20436;-78
2023/06/25 08:24:01;;;;;;;11.33;9.10;;;27.50;99.90;;;;;;5096706;28;20440;-78
2023/06/25 08:26:31;;;;;;;10.47;9.47;;;27.60;99.90;;;;;;5096579;28;20432;-78
2023/06/25 08:28:59;;;;;;;10.63;9.63;;;27.70;99.90;;;;;;5096132;28;20542;-78
2023/06/25 08:31:29;;;;;;;10.97;9.87;;;27.70;99.90;;;;;;5094600;28;20509;-78
2023/06/25 08:33:58;;;;;;;10.73;9.63;;;27.80;99.90;;;;;;5095636;28;20929;-78
2023/06/25 08:36:26;;;;;;;12.27;9.27;;;27.80;99.90;;;;;;5095793;28;20769;-78
2023/06/25 08:38:54;;;;;;;10.90;9.90;;;27.80;99.90;;;;;;5095020;28;20468;-79
2023/06/25 08:41:22;;;;;;;11.30;10.20;;;27.90;99.90;;;;;;5094842;28;20880;-78
2023/06/25 08:43:50;;;;;;;10.50;9.50;;;28.00;99.90;;;;;;5095426;28;20959;-78
2023/06/25 08:46:19;;;;;;;10.63;9.53;;;28.00;99.90;;;;;;5095750;28;21024;-78
2023/06/25 08:48:50;;;;;;;10.40;9.37;;;28.00;99.90;;;;;;5098741;28;20482;-79
2023/06/25 08:51:23;;;;;;;10.67;8.67;;;28.10;99.90;;;;;;5097104;28;20788;-79
2023/06/25 08:53:52;;;;;;;10.60;9.50;;;28.10;99.90;;;;;;5096883;28;20511;-79
2023/06/25 08:56:20;;;;;;;9.60;8.63;;;28.00;99.90;;;;;;5097723;28;20436;-79
2023/06/25 08:58:49;;;;;;;9.60;8.60;;;28.00;99.90;;;;;;5097298;28;20456;-79
2023/06/25 09:01:18;;;;;;;10.03;8.97;;;28.10;99.90;;;;;;5098371;28;20467;-80
2023/06/25 09:03:48;;;;;;;8.63;7.83;;;28.10;99.90;;;;;;5098257;28;20446;-79
2023/06/25 09:06:17;;;;;;;9.67;8.67;;;28.20;99.90;;;;;;5098421;28;20464;-79
2023/06/25 09:08:45;;;;;;;10.23;9.23;;;28.20;99.90;;;;;;5099068;28;20491;-79
2023/06/25 09:11:14;;;;;;;9.27;8.27;;;28.30;99.90;;;;;;5095944;28;20476;-79
2023/06/25 09:13:42;;;;;;;8.90;8.00;;;28.30;99.90;;;;;;5097592;28;20475;-79
2023/06/25 09:16:11;;;;;;;9.43;8.47;;;28.30;99.90;;;;;;5098134;28;20547;-79
2023/06/25 09:18:39;;;;;;;9.70;8.70;;;28.40;99.90;;;;;;5098213;28;20460;-80
2023/06/25 09:21:10;;;;;;;9.77;8.40;;;28.40;99.90;;;;;;5098394;28;20456;-79
2023/06/25 09:23:38;;;;;;;9.77;8.67;;;28.40;99.90;;;;;;5097926;28;20487;-79
2023/06/25 09:26:13;;;;;;;10.10;9.10;;;28.40;99.90;;;;;;5099379;28;20949;-81
2023/06/25 09:28:51;;;;;;;10.07;9.17;;;28.40;99.90;;;;;;5097924;28;20874;-80
2023/06/25 09:31:20;;;;;;;9.20;8.40;;;28.40;99.90;;;;;;5100105;28;20417;-80
2023/06/25 09:33:52;;;;;;;9.40;8.47;;;28.50;99.90;;;;;;5098370;28;20452;-80
2023/06/25 09:36:21;;;;;;;9.77;8.70;;;28.50;99.90;;;;;;5103571;28;20859;-80
2023/06/25 09:39:07;;;;;;;9.40;8.40;;;28.50;99.90;;;;;;5103982;28;20460;-80
2023/06/25 09:41:36;;;;;;;10.20;9.20;;;28.50;99.90;;;;;;5102738;28;20447;-79
2023/06/25 09:44:06;;;;;;;10.80;9.80;;;28.40;99.90;;;;;;5101817;28;20436;-81
2023/06/25 09:46:36;;;;;;;8.97;8.17;;;28.40;99.90;;;;;;5105007;28;20433;-80
2023/06/25 09:49:06;;;;;;;10.10;8.80;;;28.30;99.60;;;;;;5101843;28;20554;-78
2023/06/25 09:51:43;;;;;;;9.27;8.30;;;28.30;99.50;;;;;;5103872;28;20820;-79
2023/06/25 09:54:15;;;;;;;9.27;8.37;;;28.20;99.10;;;;;;5102744;28;20458;-79
2023/06/25 09:56:45;;;;;;;10.50;9.40;;;28.20;99.30;;;;;;5104133;28;20452;-79
2023/06/25 09:59:14;;;;;;;10.23;9.20;;;28.30;99.30;;;;;;5101673;28;20505;-79
2023/06/25 10:01:42;;;;;;;8.87;7.93;;;28.40;99.30;;;;;;5103359;28;20440;-79
2023/06/25 10:04:10;;;;;;;9.90;9.00;;;28.50;99.20;;;;;;5102857;28;20437;-79
2023/06/25 10:06:40;;;;;;;9.57;8.67;;;28.40;99.10;;;;;;5103608;28;20504;-79
2023/06/25 10:09:09;;;;;;;9.13;8.23;;;28.40;99.00;;;;;;5101287;28;20460;-79
2023/06/25 10:11:37;;;;;;;9.73;8.83;;;28.30;98.90;;;;;;5095730;28;20810;-79
2023/06/25 10:14:06;;;;;;;9.60;8.70;;;28.40;98.80;;;;;;5105717;28;20468;-79
2023/06/25 10:16:34;;;;;;;9.77;8.87;;;28.40;98.80;;;;;;5100017;28;20993;-78
2023/06/25 10:19:07;;;;;;;10.10;8.47;;;28.50;99.10;;;;;;5112162;28;20432;-81
2023/06/25 10:21:35;;;;;;;10.23;9.23;;;28.60;98.90;;;;;;5111105;28;20466;-79
2023/06/25 10:24:05;;;;;;;9.50;8.60;;;28.60;98.50;;;;;;5098171;28;20881;-77
2023/06/25 10:26:35;;;;;;;9.80;8.80;;;28.60;98.40;;;;;;5095599;28;20444;-76
2023/06/25 10:29:07;;;;;;;9.03;8.13;;;28.60;98.40;;;;;;5095202;28;20854;-72
2023/06/25 10:31:41;;;;;;;9.40;7.93;;;28.70;98.20;;;;;;5094547;28;20436;-73
2023/06/25 10:34:10;;;;;;;9.60;8.60;;;28.70;98.00;;;;;;5096622;28;20860;-74
2023/06/25 10:36:49;;;;;;;9.40;8.47;;;28.80;98.00;;;;;;5095924;28;20562;-73
2023/06/25 10:39:19;;;;;;;9.50;8.60;;;28.90;97.80;;;;;;5095299;28;20452;-74
2023/06/25 10:41:48;;;;;;;10.07;8.77;;;28.90;97.60;;;;;;5094879;28;20447;-74
2023/06/25 10:44:16;;;;;;;9.03;8.13;;;28.90;97.30;;;;;;5093777;28;20432;-72
2023/06/25 10:46:45;;;;;;;11.67;9.87;;;28.90;97.40;;;;;;5093381;28;20960;-72
2023/06/25 10:49:19;;;;;;;10.07;9.17;;;28.80;97.40;;;;;;5093631;28;20455;-72
2023/06/25 10:51:48;;;;;;;8.93;8.03;;;28.80;97.70;;;;;;5092327;28;20932;-71
2023/06/25 10:54:21;;;;;;;9.60;8.70;;;28.80;97.20;;;;;;5093633;28;20432;-72
2023/06/25 10:56:49;;;;;;;10.13;9.13;;;28.80;97.20;;;;;;5093892;28;20456;-72
2023/06/25 10:59:22;;;;;;;9.10;8.20;;;28.90;97.30;;;;;;5093644;28;20458;-71
2023/06/25 11:01:51;;;;;;;9.50;8.50;;;28.90;97.30;;;;;;5093648;28;20425;-72
2023/06/25 11:04:19;;;;;;;9.80;8.40;;;29.00;96.90;;;;;;5093342;28;20444;-74
2023/06/25 11:06:48;;;;;;;9.20;7.80;;;29.10;96.70;;;;;;5093814;28;20474;-71
2023/06/25 11:09:16;;;;;;;7.77;6.97;;;29.10;96.70;;;;;;5094269;28;20448;-71
2023/06/25 11:11:45;;;;;;;8.33;7.53;;;29.10;96.40;;;;;;5093288;28;20814;-71
2023/06/25 11:14:14;;;;;;;9.63;7.10;;;29.00;96.30;;;;;;5094100;28;20803;-71
2023/06/25 11:16:46;;;;;;;8.43;7.63;;;29.00;96.40;;;;;;5093593;28;20517;-71
2023/06/25 11:19:14;;;;;;;7.40;6.70;;;29.10;96.30;;;;;;5094235;28;20451;-71
2023/06/25 11:21:42;;;;;;;8.80;7.90;;;29.10;96.30;;;;;;5094073;28;20432;-70
2023/06/25 11:24:11;;;;;;;8.57;7.77;;;29.10;96.30;;;;;;5093649;28;20444;-71
2023/06/25 11:26:41;;;;;;;8.70;7.10;;;29.20;96.20;;;;;;5094855;28;20428;-71
2023/06/25 11:29:11;;;;;;;8.57;7.70;;;29.20;96.10;;;;;;5096075;28;20471;-71
2023/06/25 11:31:44;;;;;;;8.80;8.00;;;29.30;96.00;;;;;;5097828;28;20427;-71
2023/06/25 11:34:21;;;;;;;8.30;7.13;;;29.30;96.00;;;;;;5097058;28;20423;-71
2023/06/25 11:36:50;;;;;;;8.30;7.50;;;29.40;95.80;;;;;;5097104;28;20451;-71
2023/06/25 11:39:18;;;;;;;9.13;7.90;;;29.40;95.70;;;;;;5097134;28;20448;-71
2023/06/25 11:41:46;;;;;;;9.03;7.90;;;29.30;95.70;;;;;;5097530;28;20432;-71
2023/06/25 11:44:19;;;;;;;7.73;7.03;;;29.30;95.50;;;;;;5097152;28;20436;-71
2023/06/25 11:46:51;;;;;;;8.73;7.93;;;29.30;95.20;;;;;;5096926;28;20432;-71
2023/06/25 11:49:20;;;;;;;8.27;7.50;;;29.30;95.10;;;;;;5097592;28;20444;-70
2023/06/25 11:51:53;;;;;;;8.50;7.60;;;29.30;95.40;;;;;;5096951;28;20432;-71
2023/06/25 11:54:21;;;;;;;8.40;7.43;;;29.30;95.40;;;;;;5097528;28;20820;-71
2023/06/25 11:56:49;;;;;;;8.90;8.03;;;29.40;95.10;;;;;;5096945;28;20460;-71
2023/06/25 11:59:19;;;;;;;7.20;6.50;;;29.60;95.00;;;;;;5097013;28;20452;-71
2023/06/25 12:01:47;;;;;;;7.87;6.93;;;29.70;95.10;;;;;;5096863;28;20531;-71
2023/06/25 12:04:15;;;;;;;8.47;7.60;;;29.70;94.80;;;;;;5096970;28;20436;-71
2023/06/25 12:06:43;;;;;;;8.00;7.23;;;29.70;94.70;;;;;;5096691;28;20435;-71
2023/06/25 12:09:12;;;;;;;7.83;7.03;;;29.70;94.80;;;;;;5096856;28;20456;-71
2023/06/25 12:11:40;;;;;;;8.03;7.23;;;29.70;94.50;;;;;;5097093;28;20497;-72
2023/06/25 12:14:08;;;;;;;8.60;7.80;;;29.70;94.20;;;;;;5096952;28;20784;-71
2023/06/25 12:16:37;;;;;;;8.27;7.47;;;29.60;94.20;;;;;;5096540;28;20464;-71
2023/06/25 12:19:05;;;;;;;8.87;7.40;;;29.60;94.40;;;;;;5097262;28;20468;-71
2023/06/25 12:21:33;;;;;;;8.40;7.50;;;29.50;94.40;;;;;;5096925;28;20524;-70
2023/06/25 12:24:02;;;;;;;9.03;7.33;;;29.50;94.60;;;;;;5096988;28;20450;-71
2023/06/25 12:26:30;;;;;;;8.93;8.10;;;29.60;94.70;;;;;;5095762;28;20463;-71
2023/06/25 12:28:58;;;;;;;8.63;7.73;;;29.60;94.80;;;;;;5097153;28;20480;-71
2023/06/25 12:31:26;;;;;;;7.73;7.03;;;29.70;94.80;;;;;;5097124;28;20429;-71
2023/06/25 12:33:56;;;;;;;8.00;7.20;;;29.70;94.90;;;;;;5097152;28;20436;-71
2023/06/25 12:36:24;;;;;;;8.00;7.23;;;29.80;94.80;;;;;;5096486;28;20464;-71
2023/06/25 12:38:52;;;;;;;8.23;7.43;;;29.80;94.60;;;;;;5095964;28;20456;-71
2023/06/25 12:41:22;;;;;;;8.20;7.40;;;29.80;94.90;;;;;;5097154;28;20473;-71
2023/06/25 12:43:51;;;;;;;8.00;7.20;;;29.90;94.50;;;;;;5096877;28;20471;-71